createdAt,value
2022-10-26T00:01:09.186Z,13.48
2022-10-26T00:03:36.378Z,13.48
2022-10-26T00:06:11.583Z,13.51
2022-10-26T00:08:38.508Z,13.45
2022-10-26T00:11:05.510Z,13.43
2022-10-26T00:13:32.619Z,13.45
2022-10-26T00:18:26.659Z,13.42
2022-10-26T00:20:53.144Z,13.35
2022-10-26T00:23:19.635Z,13.47
2022-10-26T00:25:54.369Z,13.53
2022-10-26T00:28:20.818Z,13.48
2022-10-26T00:30:47.590Z,13.40
2022-10-26T00:33:14.512Z,13.42
2022-10-26T00:35:45.972Z,13.33
2022-10-26T00:38:12.962Z,13.29
2022-10-26T00:40:39.427Z,13.28
2022-10-26T00:43:13.404Z,13.28
2022-10-26T00:45:39.968Z,13.34
2022-10-26T00:48:10.094Z,13.32
2022-10-26T00:50:39.745Z,13.15
2022-10-26T00:53:07.074Z,12.96
2022-10-26T00:55:40.636Z,12.96
2022-10-26T00:58:07.369Z,12.88
2022-10-26T01:00:33.838Z,12.79
2022-10-26T01:03:06.504Z,12.79
2022-10-26T01:05:34.375Z,12.76
2022-10-26T01:08:01.935Z,12.65
2022-10-26T01:10:28.940Z,12.60
2022-10-26T01:12:56.770Z,12.68
2022-10-26T01:15:28.418Z,12.87
2022-10-26T01:17:57.891Z,12.80
2022-10-26T01:20:59.724Z,12.87
2022-10-26T01:23:34.055Z,12.91
2022-10-26T01:26:15.345Z,12.87
2022-10-26T01:29:06.608Z,12.77
2022-10-26T01:31:45.887Z,12.83
2022-10-26T01:34:15.328Z,12.72
2022-10-26T01:36:45.905Z,12.80
2022-10-26T01:39:21.166Z,12.84
2022-10-26T01:41:50.049Z,12.86
2022-10-26T01:44:28.625Z,12.93
2022-10-26T01:46:55.937Z,12.76
2022-10-26T01:49:25.395Z,12.79
2022-10-26T01:51:51.864Z,12.67
2022-10-26T01:54:18.343Z,12.65
2022-10-26T01:56:47.870Z,12.62
2022-10-26T01:59:30.419Z,12.66
2022-10-26T02:02:19.556Z,12.93
2022-10-26T02:05:13.706Z,13.04
2022-10-26T02:07:58.378Z,12.93
2022-10-26T02:10:46.237Z,12.89
2022-10-26T02:13:32.882Z,12.87
2022-10-26T02:16:24.616Z,12.81
2022-10-26T02:19:17.084Z,12.77
2022-10-26T02:21:53.368Z,12.64
2022-10-26T02:24:20.427Z,12.83
2022-10-26T02:26:48.233Z,12.86
2022-10-26T02:29:17.707Z,12.58
2022-10-26T02:31:45.468Z,12.88
2022-10-26T02:34:13.616Z,12.73
2022-10-26T02:36:42.940Z,12.84
2022-10-26T02:39:10.233Z,12.68
2022-10-26T02:41:36.886Z,12.51
2022-10-26T02:44:25.060Z,12.41
2022-10-26T02:46:51.871Z,12.05
2022-10-26T02:49:18.571Z,11.99
2022-10-26T02:51:45.992Z,12.18
2022-10-26T02:54:26.842Z,12.23
2022-10-26T02:57:00.262Z,12.17
2022-10-26T02:59:30.918Z,12.08
2022-10-26T03:01:57.746Z,12.19
2022-10-26T03:04:31.436Z,12.19
2022-10-26T03:06:58.265Z,12.06
2022-10-26T03:09:25.683Z,11.87
2022-10-26T03:11:52.520Z,11.95
2022-10-26T03:14:19.055Z,12.05
2022-10-26T03:16:45.815Z,11.87
2022-10-26T03:19:12.466Z,11.95
2022-10-26T03:21:38.923Z,11.87
2022-10-26T03:24:05.647Z,11.89
2022-10-26T03:26:32.127Z,11.88
2022-10-26T03:28:58.667Z,11.98
2022-10-26T03:31:25.160Z,11.93
2022-10-26T03:33:51.746Z,11.88
2022-10-26T03:36:18.198Z,12.04
2022-10-26T03:38:44.800Z,11.88
2022-10-26T03:41:11.317Z,11.84
2022-10-26T03:43:37.836Z,11.94
2022-10-26T03:46:04.355Z,11.83
2022-10-26T03:48:30.850Z,11.57
2022-10-26T03:50:58.319Z,11.67
2022-10-26T03:53:25.083Z,11.46
2022-10-26T03:55:51.595Z,11.57
2022-10-26T03:58:18.134Z,11.40
2022-10-26T04:00:44.846Z,11.34
2022-10-26T04:03:11.382Z,11.42
2022-10-26T04:05:37.869Z,11.28
2022-10-26T04:08:04.389Z,11.68
2022-10-26T04:10:34.740Z,12.09
2022-10-26T04:13:01.278Z,12.10
2022-10-26T04:15:28.408Z,11.72
2022-10-26T04:17:59.831Z,11.93
2022-10-26T04:20:27.036Z,11.75
2022-10-26T04:23:00.302Z,11.60
2022-10-26T04:25:30.118Z,11.62
2022-10-26T04:28:00.389Z,10.95
2022-10-26T04:30:26.855Z,10.96
2022-10-26T04:32:53.323Z,11.05
2022-10-26T04:35:19.833Z,10.52
2022-10-26T04:37:46.298Z,11.16
2022-10-26T04:40:12.831Z,11.18
2022-10-26T04:42:46.620Z,11.35
2022-10-26T04:45:14.740Z,11.15
2022-10-26T04:47:41.697Z,10.88
2022-10-26T04:50:09.229Z,10.56
2022-10-26T04:52:36.288Z,10.54
2022-10-26T04:55:06.160Z,10.81
2022-10-26T04:57:33.552Z,10.59
2022-10-26T05:00:00.983Z,10.63
2022-10-26T05:02:28.641Z,10.65
2022-10-26T05:04:55.279Z,10.50
2022-10-26T05:07:21.786Z,10.66
2022-10-26T05:09:48.311Z,10.42
2022-10-26T05:12:14.828Z,10.45
2022-10-26T05:14:41.333Z,10.66
2022-10-26T05:17:07.923Z,10.81
2022-10-26T05:19:34.499Z,10.32
2022-10-26T05:22:01.053Z,10.51
2022-10-26T05:24:27.507Z,10.28
2022-10-26T05:26:54.138Z,10.29
2022-10-26T05:29:20.595Z,10.29
2022-10-26T05:31:47.193Z,10.11
2022-10-26T05:34:13.669Z,10.17
2022-10-26T05:36:40.303Z,9.99
2022-10-26T05:39:06.896Z,10.17
2022-10-26T05:41:33.469Z,9.89
2022-10-26T05:44:00.037Z,9.97
2022-10-26T05:46:26.623Z,10.08
2022-10-26T05:48:53.171Z,10.02
2022-10-26T05:51:19.652Z,10.06
2022-10-26T05:53:46.190Z,9.87
2022-10-26T05:56:34.000Z,9.65
2022-10-26T05:59:04.901Z,9.21
2022-10-26T06:02:00.605Z,8.91
2022-10-26T06:04:38.770Z,9.24
2022-10-26T06:07:13.549Z,9.10
2022-10-26T06:09:41.268Z,8.74
2022-10-26T06:12:08.790Z,8.93
2022-10-26T06:14:35.981Z,9.13
2022-10-26T06:17:22.376Z,8.88
2022-10-26T06:20:26.141Z,8.85
2022-10-26T06:23:18.874Z,8.93
2022-10-26T06:26:09.557Z,8.50
2022-10-26T06:28:55.936Z,8.56
2022-10-26T06:31:22.410Z,8.94
2022-10-26T06:33:48.860Z,9.14
2022-10-26T06:36:22.926Z,9.14
2022-10-26T06:38:53.042Z,8.80
2022-10-26T06:41:20.067Z,8.67
2022-10-26T06:43:46.751Z,8.68
2022-10-26T06:46:41.834Z,8.50
2022-10-26T06:49:27.989Z,8.57
2022-10-26T06:52:03.800Z,8.54
2022-10-26T06:54:47.140Z,8.62
2022-10-26T06:57:15.899Z,8.36
2022-10-26T06:59:50.635Z,8.32
2022-10-26T07:02:17.584Z,8.49
2022-10-26T07:04:44.497Z,8.68
2022-10-26T07:07:17.440Z,8.85
2022-10-26T07:09:43.906Z,8.68
2022-10-26T07:12:10.427Z,8.83
2022-10-26T07:14:36.875Z,9.05
2022-10-26T07:17:03.863Z,8.97
2022-10-26T07:19:30.314Z,9.35
2022-10-26T07:21:57.495Z,9.10
2022-10-26T07:24:24.069Z,9.03
2022-10-26T07:26:50.587Z,8.98
2022-10-26T07:29:18.088Z,8.92
2022-10-26T07:31:44.773Z,9.01
2022-10-26T07:34:11.304Z,9.10
2022-10-26T07:36:37.847Z,9.10
2022-10-26T07:39:04.399Z,9.28
2022-10-26T07:41:30.892Z,9.31
2022-10-26T07:43:57.503Z,9.49
2022-10-26T07:46:24.071Z,9.30
2022-10-26T07:48:50.691Z,9.43
2022-10-26T07:51:17.187Z,9.59
2022-10-26T07:53:43.677Z,9.66
2022-10-26T07:56:10.704Z,9.69
2022-10-26T07:58:37.297Z,10.04
2022-10-26T08:01:13.239Z,9.91
2022-10-26T08:03:40.311Z,9.73
2022-10-26T08:06:07.578Z,10.05
2022-10-26T08:08:34.077Z,10.07
2022-10-26T08:11:00.860Z,9.79
2022-10-26T08:13:27.526Z,9.86
2022-10-26T08:16:01.729Z,10.18
2022-10-26T08:18:28.354Z,10.20
2022-10-26T08:21:01.740Z,10.26
2022-10-26T08:23:36.691Z,10.46
2022-10-26T08:26:03.923Z,10.48
2022-10-26T08:28:30.819Z,10.51
2022-10-26T08:30:57.273Z,10.47
2022-10-26T08:33:24.702Z,10.54
2022-10-26T08:36:02.339Z,10.62
2022-10-26T08:38:29.244Z,10.51
2022-10-26T08:40:57.543Z,10.86
2022-10-26T08:43:27.955Z,10.99
2022-10-26T08:45:57.158Z,11.18
2022-10-26T08:48:35.803Z,11.55
2022-10-26T08:51:24.522Z,11.69
2022-10-26T08:54:00.017Z,12.09
2022-10-26T08:56:28.370Z,12.05
2022-10-26T08:58:57.459Z,11.99
2022-10-26T09:01:24.027Z,11.80
2022-10-26T09:03:50.884Z,11.77
2022-10-26T09:06:41.519Z,12.05
2022-10-26T09:09:16.868Z,11.95
2022-10-26T09:12:07.487Z,12.02
2022-10-26T09:14:43.560Z,12.22
2022-10-26T09:17:34.806Z,12.43
2022-10-26T09:20:18.259Z,12.53
2022-10-26T09:23:01.009Z,12.49
2022-10-26T09:25:35.479Z,12.62
2022-10-26T09:28:02.264Z,12.54
2022-10-26T09:30:30.322Z,12.73
2022-10-26T09:33:02.593Z,12.81
2022-10-26T09:36:00.397Z,12.90
2022-10-26T09:38:32.305Z,13.30
2022-10-26T09:41:06.602Z,13.32
2022-10-26T09:43:41.731Z,13.37
2022-10-26T09:46:13.450Z,13.56
2022-10-26T09:48:45.552Z,13.61
2022-10-26T09:51:12.217Z,13.70
2022-10-26T09:53:38.666Z,13.69
2022-10-26T09:56:10.544Z,13.86
2022-10-26T09:58:44.959Z,13.81
2022-10-26T10:01:22.072Z,13.98
2022-10-26T10:03:48.603Z,13.99
2022-10-26T10:06:18.372Z,14.07
2022-10-26T10:09:05.119Z,14.12
2022-10-26T10:11:54.887Z,14.13
2022-10-26T10:14:26.614Z,14.24
2022-10-26T10:16:55.700Z,14.43
2022-10-26T10:19:25.354Z,14.51
2022-10-26T10:21:54.525Z,14.47
2022-10-26T10:24:33.675Z,14.64
2022-10-26T10:27:03.010Z,14.73
2022-10-26T10:29:34.918Z,14.89
2022-10-26T10:32:03.057Z,14.97
2022-10-26T10:34:33.619Z,14.99
2022-10-26T10:37:00.993Z,14.99
2022-10-26T10:39:34.546Z,15.10
2022-10-26T10:42:01.163Z,15.36
2022-10-26T10:44:31.726Z,15.30
2022-10-26T10:47:06.279Z,15.44
2022-10-26T10:49:33.418Z,15.29
2022-10-26T10:52:00.296Z,15.44
2022-10-26T10:54:33.364Z,15.48
2022-10-26T10:57:29.442Z,15.49
2022-10-26T11:00:05.385Z,15.66
2022-10-26T11:02:47.010Z,15.87
2022-10-26T11:05:32.039Z,15.88
2022-10-26T11:08:03.821Z,15.92
2022-10-26T11:10:35.271Z,16.01
2022-10-26T11:13:05.002Z,15.83
2022-10-26T11:15:34.441Z,15.97
2022-10-26T11:18:09.576Z,16.04
2022-10-26T11:20:40.866Z,15.96
2022-10-26T11:23:12.843Z,16.08
2022-10-26T11:25:56.946Z,16.10
2022-10-26T11:28:37.492Z,16.15
2022-10-26T11:31:08.305Z,16.12
2022-10-26T11:33:41.532Z,16.33
2022-10-26T11:36:21.880Z,16.31
2022-10-26T11:39:20.391Z,16.28
2022-10-26T11:42:21.330Z,16.36
2022-10-26T11:45:22.910Z,16.45
2022-10-26T11:48:16.100Z,16.39
2022-10-26T11:50:49.057Z,16.36
2022-10-26T11:53:18.059Z,16.44
2022-10-26T11:55:48.878Z,16.53
2022-10-26T11:58:17.255Z,16.42
2022-10-26T12:01:07.538Z,16.46
2022-10-26T12:03:38.099Z,16.43
2022-10-26T12:06:04.731Z,16.32
2022-10-26T12:08:36.314Z,16.40
2022-10-26T12:11:09.989Z,16.54
2022-10-26T12:13:42.295Z,16.61
2022-10-26T12:16:40.144Z,16.46
2022-10-26T12:19:14.727Z,16.57
2022-10-26T12:21:43.867Z,16.47
2022-10-26T12:24:22.681Z,16.45
2022-10-26T12:26:50.708Z,16.29
2022-10-26T12:29:29.463Z,16.26
2022-10-26T12:31:55.951Z,16.21
2022-10-26T12:34:29.404Z,16.09
2022-10-26T12:36:55.806Z,16.20
2022-10-26T12:39:36.278Z,16.35
2022-10-26T12:42:05.574Z,16.42
2022-10-26T12:44:37.828Z,16.20
2022-10-26T12:47:05.300Z,16.04
2022-10-26T12:50:06.210Z,16.01
2022-10-26T12:53:11.057Z,16.35
2022-10-26T12:55:46.623Z,16.34
2022-10-26T12:58:32.508Z,16.41
2022-10-26T13:00:58.957Z,16.45
2022-10-26T13:04:09.103Z,16.55
2022-10-26T13:06:54.475Z,16.54
2022-10-26T13:09:23.424Z,16.53
2022-10-26T13:11:53.030Z,16.57
2022-10-26T13:14:37.263Z,16.57
2022-10-26T13:17:05.514Z,16.82
2022-10-26T13:19:45.467Z,17.37
2022-10-26T13:22:16.334Z,17.69
2022-10-26T13:24:52.285Z,17.19
2022-10-26T13:27:18.982Z,17.33
2022-10-26T13:30:03.475Z,17.87
2022-10-26T13:32:33.763Z,18.20
2022-10-26T13:35:01.854Z,18.38
2022-10-26T13:37:31.638Z,18.42
2022-10-26T13:39:59.677Z,18.47
2022-10-26T13:43:04.736Z,17.71
2022-10-26T13:45:34.464Z,16.91
2022-10-26T13:48:10.241Z,16.68
2022-10-26T13:51:01.860Z,16.53
2022-10-26T13:53:40.437Z,16.50
2022-10-26T13:56:13.701Z,16.40
2022-10-26T13:58:48.965Z,16.54
2022-10-26T14:01:18.078Z,16.61
2022-10-26T14:03:44.628Z,16.63
2022-10-26T14:06:24.041Z,16.49
2022-10-26T14:08:51.823Z,16.45
2022-10-26T14:11:21.164Z,16.58
2022-10-26T14:13:49.243Z,16.46
2022-10-26T14:16:19.192Z,16.50
2022-10-26T14:18:46.408Z,16.38
2022-10-26T14:21:16.136Z,16.52
2022-10-26T14:23:49.044Z,16.63
2022-10-26T14:26:26.586Z,16.74
2022-10-26T14:28:56.378Z,16.61
2022-10-26T14:31:25.445Z,16.71
2022-10-26T14:33:52.678Z,16.58
2022-10-26T14:36:21.720Z,16.51
2022-10-26T14:38:50.126Z,16.63
2022-10-26T14:41:17.578Z,16.40
2022-10-26T14:43:44.686Z,16.43
2022-10-26T14:46:18.604Z,16.44
2022-10-26T14:48:53.917Z,16.54
2022-10-26T14:51:22.367Z,16.54
2022-10-26T14:53:51.032Z,16.32
2022-10-26T14:56:35.650Z,16.56
2022-10-26T14:59:22.649Z,16.29
2022-10-26T15:01:54.008Z,15.99
2022-10-26T15:04:32.463Z,16.00
2022-10-26T15:07:18.200Z,16.12
2022-10-26T15:09:51.927Z,16.21
2022-10-26T15:12:33.498Z,16.24
2022-10-26T15:17:55.240Z,16.01
2022-10-26T15:20:23.338Z,16.13
2022-10-26T15:23:01.678Z,16.17
2022-10-26T15:25:30.155Z,16.11
2022-10-26T15:28:09.251Z,16.25
2022-10-26T15:30:35.751Z,16.31
2022-10-26T15:33:18.803Z,16.16
2022-10-26T15:35:45.240Z,16.22
2022-10-26T15:38:11.866Z,16.23
2022-10-26T15:40:42.627Z,15.90
2022-10-26T15:43:10.475Z,16.01
2022-10-26T15:45:47.887Z,15.90
2022-10-26T15:48:17.723Z,15.86
2022-10-26T15:50:44.201Z,15.72
2022-10-26T15:53:18.233Z,15.85
2022-10-26T15:55:44.799Z,15.79
2022-10-26T15:58:11.605Z,15.77
2022-10-26T16:00:38.078Z,15.69
2022-10-26T16:03:04.545Z,15.57
2022-10-26T16:07:58.642Z,15.26
2022-10-26T16:10:25.668Z,15.28
2022-10-26T16:12:52.607Z,15.17
2022-10-26T16:15:24.396Z,15.21
2022-10-26T16:17:51.237Z,15.26
2022-10-26T16:20:23.182Z,15.19
2022-10-26T16:22:51.256Z,15.17
2022-10-26T16:25:20.840Z,14.95
2022-10-26T16:27:47.832Z,14.86
2022-10-26T16:30:14.368Z,15.02
2022-10-26T16:32:41.232Z,15.01
2022-10-26T16:35:08.443Z,15.06
2022-10-26T16:37:34.930Z,14.86
2022-10-26T16:40:01.374Z,14.83
2022-10-26T16:42:28.461Z,14.80
2022-10-26T16:44:57.594Z,14.72
2022-10-26T16:47:27.105Z,14.62
2022-10-26T16:49:53.843Z,14.70
2022-10-26T16:52:20.309Z,14.63
2022-10-26T16:54:46.807Z,14.53
2022-10-26T16:57:13.323Z,14.50
2022-10-26T16:59:39.832Z,14.50
2022-10-26T17:02:06.619Z,14.50
2022-10-26T17:04:33.135Z,14.74
2022-10-26T17:07:02.287Z,14.83
2022-10-26T17:09:29.774Z,14.63
2022-10-26T17:12:00.937Z,14.83
2022-10-26T17:14:31.909Z,14.72
2022-10-26T17:16:58.888Z,14.75
2022-10-26T17:19:25.351Z,14.73
2022-10-26T17:21:53.876Z,14.79
2022-10-26T17:24:20.731Z,14.91
2022-10-26T17:26:47.485Z,14.95
2022-10-26T17:29:14.156Z,15.01
2022-10-26T17:31:40.726Z,14.98
2022-10-26T17:34:07.271Z,14.98
2022-10-26T17:36:33.796Z,14.96
2022-10-26T17:39:00.898Z,14.81
2022-10-26T17:41:28.072Z,14.94
2022-10-26T17:43:54.624Z,14.96
2022-10-26T17:46:25.642Z,14.93
2022-10-26T17:48:59.452Z,14.99
2022-10-26T17:51:29.655Z,14.96
2022-10-26T17:53:56.924Z,15.03
2022-10-26T17:56:26.767Z,15.06
2022-10-26T17:58:58.468Z,15.10
2022-10-26T18:01:25.288Z,15.10
2022-10-26T18:03:52.063Z,15.09
2022-10-26T18:06:18.861Z,15.14
2022-10-26T18:08:45.647Z,15.16
2022-10-26T18:11:15.002Z,15.20
2022-10-26T18:13:41.547Z,15.24
2022-10-26T18:16:11.000Z,15.23
2022-10-26T18:18:38.530Z,15.23
2022-10-26T18:21:09.842Z,15.19
2022-10-26T18:23:36.814Z,15.24
2022-10-26T18:26:11.125Z,15.21
2022-10-26T18:28:39.863Z,15.29
2022-10-26T18:31:07.880Z,15.32
2022-10-26T18:33:36.598Z,15.31
2022-10-26T18:36:04.298Z,15.39
2022-10-26T18:38:31.367Z,15.35
2022-10-26T18:40:58.031Z,15.44
2022-10-26T18:43:24.696Z,15.43
2022-10-26T18:45:51.192Z,15.46
2022-10-26T18:48:18.673Z,15.48
2022-10-26T18:50:45.695Z,15.47
2022-10-26T18:53:16.369Z,15.57
2022-10-26T18:55:43.021Z,15.54
2022-10-26T18:58:11.349Z,15.49
2022-10-26T19:00:38.841Z,15.58
2022-10-26T19:03:07.979Z,15.54
2022-10-26T19:05:35.081Z,15.58
2022-10-26T19:08:01.546Z,15.57
2022-10-26T19:10:28.076Z,15.64
2022-10-26T19:12:54.571Z,15.65
2022-10-26T19:15:21.590Z,15.62
2022-10-26T19:17:48.083Z,15.70
2022-10-26T19:20:14.715Z,15.66
2022-10-26T19:22:41.260Z,15.68
2022-10-26T19:25:08.519Z,15.72
2022-10-26T19:27:35.042Z,15.63
2022-10-26T19:30:01.578Z,15.66
2022-10-26T19:32:28.787Z,15.76
2022-10-26T19:34:55.376Z,15.79
2022-10-26T19:37:23.719Z,15.82
2022-10-26T19:39:52.517Z,15.80
2022-10-26T19:42:19.019Z,15.80
2022-10-26T19:44:45.470Z,15.78
2022-10-26T19:47:11.922Z,15.83
2022-10-26T19:49:38.390Z,15.86
2022-10-26T19:52:04.992Z,15.88
2022-10-26T19:54:31.662Z,15.95
2022-10-26T19:56:58.190Z,15.79
2022-10-26T19:59:24.651Z,15.88
2022-10-26T20:01:51.197Z,15.86
2022-10-26T20:04:17.780Z,15.83
2022-10-26T20:06:44.331Z,15.91
2022-10-26T20:09:10.966Z,15.93
2022-10-26T20:11:39.642Z,15.93
2022-10-26T20:14:07.505Z,15.94
2022-10-26T20:16:33.978Z,16.01
2022-10-26T20:19:01.103Z,15.97
2022-10-26T20:21:27.579Z,16.09
2022-10-26T20:23:54.038Z,16.04
2022-10-26T20:26:21.387Z,16.07
2022-10-26T20:28:51.088Z,16.04
2022-10-26T20:31:17.782Z,15.96
2022-10-26T20:33:44.359Z,15.98
2022-10-26T20:36:10.830Z,16.03
2022-10-26T20:38:39.052Z,16.00
2022-10-26T20:41:07.975Z,16.05
2022-10-26T20:43:46.713Z,16.07
2022-10-26T20:46:23.388Z,16.09
2022-10-26T20:48:50.968Z,16.13
2022-10-26T20:51:22.280Z,16.12
2022-10-26T20:54:01.478Z,16.11
2022-10-26T20:56:28.244Z,16.10
2022-10-26T20:58:59.764Z,16.12
2022-10-26T21:01:34.379Z,16.14
2022-10-26T21:04:02.518Z,16.08
2022-10-26T21:06:29.854Z,16.10
2022-10-26T21:08:57.230Z,16.17
2022-10-26T21:11:24.951Z,16.21
2022-10-26T21:13:53.066Z,16.17
2022-10-26T21:16:19.534Z,16.25
2022-10-26T21:18:46.070Z,16.16
2022-10-26T21:21:12.594Z,16.16
2022-10-26T21:23:40.543Z,16.18
2022-10-26T21:26:07.922Z,16.23
2022-10-26T21:28:42.159Z,16.21
2022-10-26T21:31:12.717Z,16.10
2022-10-26T21:33:39.264Z,16.03
2022-10-26T21:36:08.292Z,15.95
2022-10-26T21:38:35.187Z,15.91
2022-10-26T21:41:03.883Z,15.83
2022-10-26T21:43:30.657Z,15.88
2022-10-26T21:46:03.586Z,15.90
2022-10-26T21:48:31.534Z,15.91
2022-10-26T21:50:58.006Z,15.88
2022-10-26T21:53:26.526Z,15.90
2022-10-26T21:56:00.709Z,15.90
2022-10-26T21:58:27.662Z,15.93
2022-10-26T22:00:54.178Z,15.94
2022-10-26T22:03:20.698Z,15.94
2022-10-26T22:05:53.403Z,15.90
2022-10-26T22:08:20.016Z,15.93
2022-10-26T22:10:46.533Z,15.90
2022-10-26T22:13:13.004Z,15.92
2022-10-26T22:15:39.541Z,15.84
2022-10-26T22:18:06.109Z,15.94
2022-10-26T22:20:32.655Z,15.92
2022-10-26T22:22:59.165Z,15.86
2022-10-26T22:25:25.652Z,15.85
2022-10-26T22:27:52.310Z,15.90
2022-10-26T22:30:19.037Z,15.88
2022-10-26T22:32:45.507Z,15.86
2022-10-26T22:35:28.605Z,15.78
2022-10-26T22:37:56.192Z,15.76
2022-10-26T22:40:22.637Z,15.81
2022-10-26T22:42:51.572Z,15.79
2022-10-26T22:45:18.337Z,15.80
2022-10-26T22:47:44.862Z,15.79
2022-10-26T22:50:11.322Z,15.69
2022-10-26T22:52:37.787Z,15.71
2022-10-26T22:55:04.327Z,15.65
2022-10-26T22:57:30.838Z,15.57
2022-10-26T22:59:57.296Z,15.62
2022-10-26T23:02:23.810Z,15.53
2022-10-26T23:04:50.314Z,15.51
2022-10-26T23:07:16.797Z,15.50
2022-10-26T23:09:43.264Z,15.39
2022-10-26T23:12:09.751Z,15.41
2022-10-26T23:14:36.333Z,15.30
2022-10-26T23:17:03.780Z,15.39
2022-10-26T23:19:30.232Z,15.23
2022-10-26T23:21:56.684Z,15.26
2022-10-26T23:24:23.171Z,15.23
2022-10-26T23:26:49.679Z,15.30
2022-10-26T23:29:16.337Z,15.28
2022-10-26T23:31:42.805Z,15.28
2022-10-26T23:34:09.455Z,15.26
2022-10-26T23:36:35.919Z,15.25
2022-10-26T23:39:02.831Z,15.27
2022-10-26T23:41:29.360Z,15.27
2022-10-26T23:43:55.869Z,15.28
2022-10-26T23:46:22.410Z,15.27
2022-10-26T23:48:48.906Z,15.21
2022-10-26T23:51:15.395Z,15.18
2022-10-26T23:53:41.843Z,15.25
2022-10-26T23:56:08.296Z,15.23
2022-10-26T23:58:34.783Z,15.28
